Date,TemperatureHighF,TemperatureAvgF,TemperatureLowF,DewpointHighF,DewpointAvgF,DewpointLowF,HumidityHigh,HumidityAvg,HumidityLow,PressureMaxIn,PressureMinIn,WindSpeedMaxMPH,WindSpeedAvgMPH,GustSpeedMaxMPH,PrecipitationSumIn
2013-1-1,53.0,41.3,33.0,45.0,37.3,31.0,93,86,70,30.42,30.30,2,0,3,0.01
2013-1-2,53.0,39.0,31.0,44.0,34.4,28.0,91,84,66,30.31,30.17,2,0,2,0.01
2013-1-3,54.0,42.0,31.0,47.0,37.8,28.0,93,86,71,30.36,30.13,4,1,13,0.17
2013-1-4,56.0,48.9,44.0,50.0,46.0,42.0,94,90,78,30.39,30.23,3,0,5,0.19
2013-1-5,49.0,44.9,41.0,47.0,42.9,39.0,94,92,91,30.28,30.20,0,0,2,0.03
2013-1-6,55.0,47.5,43.0,48.0,43.7,41.0,94,87,70,30.32,30.25,3,0,5,0.06
2013-1-7,53.0,49.9,47.0,51.0,47.9,44.0,95,93,90,30.36,30.23,6,1,6,0.36
2013-1-8,56.0,51.1,47.0,52.0,48.1,45.0,94,90,81,30.36,30.11,5,1,12,0.06
2013-1-9,50.0,44.9,38.0,48.0,41.7,36.0,93,88,78,30.13,29.97,6,1,15,0.46
2013-1-10,41.0,38.4,37.0,39.0,36.3,35.0,93,92,88,30.27,30.12,4,0,7,1.07
2013-1-11,48.0,40.8,34.0,42.0,36.5,31.0,92,85,75,30.40,30.32,4,0,9,0.01
2013-1-12,44.0,35.0,31.0,37.0,31.2,28.0,91,87,68,30.46,30.37,2,0,4,0.00
2013-1-13,42.0,33.7,29.0,31.0,28.0,26.0,91,80,63,30.53,30.46,3,1,5,0.00
2013-1-14,47.0,36.1,28.0,35.0,29.5,25.0,89,78,57,30.62,30.53,2,0,4,0.00
2013-1-15,49.0,39.9,31.0,36.0,32.2,28.0,91,75,58,30.66,30.60,4,2,7,0.01
2013-1-16,57.0,40.0,29.0,43.0,31.2,26.0,89,73,42,30.62,30.44,5,1,8,0.00
2013-1-17,61.0,42.8,30.0,45.0,34.9,27.0,88,75,47,30.44,30.27,1,0,3,0.00
2013-1-18,50.0,39.3,31.0,43.0,35.1,28.0,88,85,73,30.34,30.27,3,0,4,0.01
2013-1-19,40.0,39.4,39.0,38.0,37.4,36.0,91,91,91,30.38,30.37,0,0,1,0.00
2013-1-20,53.0,40.2,31.0,43.0,35.2,28.0,91,83,65,30.37,30.25,3,0,4,0.00
2013-1-21,59.0,40.5,29.0,46.0,34.4,26.0,90,80,51,30.29,30.17,2,0,3,0.01
2013-1-22,57.0,42.7,31.0,47.0,38.0,28.0,91,84,69,30.17,29.99,1,0,2,0.01
2013-1-23,47.0,44.8,43.0,45.0,42.6,40.0,94,92,88,30.27,29.94,2,0,4,0.76
2013-1-24,60.0,48.0,38.0,52.0,44.0,36.0,94,87,74,30.27,30.18,3,0,6,0.13
2013-1-25,54.0,48.9,44.0,52.0,46.5,42.0,95,92,90,30.24,30.11,3,0,6,0.38
2013-1-26,52.0,45.1,42.0,46.0,42.3,40.0,94,90,81,30.24,30.11,4,1,6,0.51
2013-1-27,48.0,43.3,40.0,44.0,40.9,38.0,94,91,86,30.32,30.22,2,0,5,1.11
2013-1-28,49.0,44.9,43.0,46.0,42.9,41.0,95,93,89,30.45,30.27,5,0,5,0.84
2013-1-29,50.0,46.5,45.0,47.0,44.2,42.0,95,92,85,30.64,30.46,3,0,4,0.34
2013-1-30,53.0,45.6,40.0,49.0,43.2,38.0,94,91,85,30.67,30.56,2,0,3,0.03
2013-1-31,56.0,46.8,36.0,48.0,41.9,34.0,94,83,71,30.52,30.42,3,1,6,0.01
2013-2-1,60.0,45.9,34.0,47.0,40.0,32.0,95,81,62,30.42,30.24,4,1,7,0.01
2013-2-2,59.0,45.6,34.0,49.0,40.8,32.0,92,84,63,30.43,30.30,5,0,7,0.00
2013-2-3,54.0,49.4,46.0,45.0,44.2,42.0,92,83,67,30.43,30.32,2,0,4,0.00
2013-2-4,55.0,46.2,39.0,46.0,41.7,37.0,92,84,70,30.32,30.10,4,0,13,0.00
2013-2-5,56.0,49.3,45.0,49.0,44.5,40.0,92,84,69,30.22,30.05,4,1,13,0.24
2013-2-6,53.0,47.3,41.0,46.0,43.1,38.0,93,86,73,30.24,30.00,5,1,12,0.15
2013-2-7,43.0,40.1,38.0,39.0,37.5,36.0,93,90,84,30.20,30.09,7,1,12,0.53
2013-2-8,55.0,41.3,35.0,44.0,36.8,33.0,93,84,63,30.38,30.21,3,0,6,0.01
2013-2-9,54.0,42.3,34.0,43.0,37.2,31.0,92,83,61,30.41,30.35,3,0,5,0.00
2013-2-10,49.0,43.4,39.0,41.0,39.5,37.0,93,86,70,30.41,30.38,4,1,8,0.00
2013-2-11,54.0,49.2,44.0,45.0,40.3,36.0,89,72,58,30.53,30.45,6,1,11,0.01
2013-2-12,55.0,49.2,46.0,51.0,46.5,44.0,93,90,83,30.63,30.53,2,0,3,0.10
2013-2-13,58.0,49.6,44.0,50.0,46.0,42.0,94,88,73,30.61,30.55,2,0,4,0.02
2013-2-14,62.0,50.5,40.0,50.0,45.0,38.0,94,82,61,30.62,30.49,4,1,7,0.00
2013-2-15,68.0,52.8,44.0,51.0,44.4,41.0,92,75,44,30.49,30.29,4,1,8,0.00
2013-2-16,54.0,47.9,44.0,46.0,43.5,40.0,92,85,69,30.42,30.37,3,0,5,0.01
2013-2-17,56.0,44.7,37.0,43.0,38.1,33.0,93,79,53,30.41,30.18,4,0,5,0.01
2013-2-18,50.0,40.9,34.0,41.0,36.1,31.0,91,83,66,30.18,29.84,4,1,8,0.04
2013-2-19,51.0,43.4,38.0,42.0,38.3,35.0,91,83,68,30.12,29.74,6,1,9,0.46
2013-2-20,53.0,43.1,37.0,43.0,38.8,34.0,91,85,64,30.26,30.12,3,0,6,0.29
2013-2-21,50.0,43.6,38.0,45.0,40.4,36.0,93,88,81,30.40,30.26,3,0,6,0.31
2013-2-22,50.0,45.7,42.0,45.0,42.5,39.0,93,88,80,30.36,30.14,15,2,20,0.58
2013-2-23,51.0,42.8,37.0,44.0,38.6,35.0,94,85,69,30.56,30.29,3,0,6,0.41
2013-2-24,53.0,41.8,34.0,43.0,36.5,31.0,91,82,60,30.57,30.28,2,0,10,0.10
2013-2-25,55.0,46.4,39.0,44.0,40.0,36.0,92,79,58,30.52,30.27,4,1,10,0.36
2013-2-26,54.0,42.0,33.0,42.0,35.8,30.0,91,80,51,30.52,30.37,4,0,6,0.12
2013-2-27,60.0,48.9,41.0,50.0,43.8,38.0,93,84,60,30.40,30.33,6,0,10,0.27
2013-2-28,57.0,53.1,51.0,54.0,50.8,49.0,95,92,88,30.59,30.34,5,1,14,0.54
2013-3-1,57.0,52.8,51.0,52.0,50.4,49.0,94,92,82,30.59,30.53,3,0,8,0.04
2013-3-2,55.0,52.0,48.0,50.0,48.3,44.0,94,87,79,30.35,30.32,5,1,5,0.00
2013-3-3,56.0,46.7,38.0,44.0,37.8,32.0,90,73,41,30.38,30.26,7,2,11,0.00
2013-3-4,59.0,43.9,33.0,47.0,37.2,30.0,91,78,58,30.26,29.98,5,1,8,0.00
2013-3-5,46.0,43.9,40.0,44.0,41.5,37.0,93,91,88,29.98,29.69,2,0,5,1.29
2013-3-6,50.0,45.1,43.0,45.0,42.1,39.0,94,89,79,30.06,29.65,6,2,13,0.72
2013-3-7,62.0,44.2,35.0,46.0,38.3,32.0,92,81,50,30.11,30.06,5,1,7,0.09
2013-3-8,59.0,44.2,33.0,46.0,38.4,30.0,90,81,61,30.32,30.10,4,1,8,0.01
2013-3-9,62.0,47.8,38.0,48.0,41.4,35.0,91,80,59,30.59,30.32,4,1,6,0.01
2013-3-10,63.0,47.4,35.0,48.0,39.8,32.0,91,77,43,30.59,30.51,3,0,6,0.00
2013-3-11,63.0,51.4,45.0,53.0,46.5,42.0,91,84,66,30.53,30.35,5,0,6,0.00
2013-3-12,60.0,51.2,47.0,51.0,47.2,45.0,94,86,69,30.35,30.30,4,0,5,0.00
2013-3-13,61.0,51.8,47.0,51.0,47.2,45.0,93,85,68,30.34,30.23,4,1,6,0.00
2013-3-14,64.0,52.7,46.0,49.0,46.3,44.0,93,80,58,30.29,30.19,6,1,15,0.00
2013-3-15,61.0,55.6,50.0,53.0,50.0,46.0,90,82,74,30.34,30.31,3,1,5,0.00
2013-3-16,52.0,49.5,45.0,49.0,46.6,43.0,92,90,85,30.35,30.24,3,0,10,0.02
2013-3-17,58.0,46.4,40.0,44.0,39.9,37.0,93,79,55,30.44,30.34,3,0,7,0.04
2013-3-18,63.0,46.3,33.0,46.0,38.3,30.0,91,76,42,30.38,30.16,4,1,8,0.01
2013-3-19,61.0,51.1,45.0,50.0,44.9,40.0,92,81,58,30.16,29.81,6,1,8,0.64
2013-3-20,54.0,48.7,43.0,51.0,43.7,39.0,92,82,66,30.35,29.77,6,2,12,0.88
2013-3-21,53.0,44.1,39.0,44.0,38.8,36.0,92,82,62,30.48,30.35,4,1,7,0.15
2013-3-22,54.0,43.5,37.0,41.0,36.8,33.0,92,78,52,30.49,30.45,5,1,8,0.08
2013-3-23,57.0,42.8,32.0,41.0,34.6,29.0,90,75,50,30.48,30.32,9,1,9,0.01
2013-3-24,57.0,45.1,36.0,42.0,37.4,33.0,90,76,52,30.33,30.16,5,1,6,0.00
2013-3-25,55.0,46.1,38.0,46.0,40.8,35.0,91,82,67,30.17,30.05,3,0,5,0.00
2013-3-26,61.0,50.5,45.0,48.0,44.5,43.0,91,81,59,30.11,30.03,3,0,5,0.00
2013-3-27,62.0,52.5,46.0,52.0,47.1,43.0,92,82,65,30.08,30.00,4,0,7,0.03
2013-3-28,61.0,52.3,46.0,52.0,47.8,44.0,93,85,68,30.23,30.07,2,0,6,0.01
2013-3-29,72.0,58.1,51.0,58.0,51.4,47.0,93,80,59,30.25,30.19,4,1,7,0.01
2013-3-30,84.0,57.7,43.0,61.0,48.5,-99.9,94,77,46,30.21,30.04,3,0,8,0.01
2013-3-31,62.0,55.7,51.0,54.0,50.8,48.0,92,84,73,30.15,30.07,3,0,8,0.00
2013-4-1,60.0,54.8,52.0,53.0,50.6,48.0,92,86,75,30.30,30.14,5,0,8,0.04
2013-4-2,64.0,53.9,50.0,54.0,49.1,47.0,92,84,68,30.33,30.25,3,1,5,0.01
2013-4-3,63.0,53.1,47.0,54.0,48.8,45.0,93,86,72,30.27,30.00,4,1,8,0.02
2013-4-4,58.0,53.8,52.0,55.0,51.5,50.0,95,92,87,30.03,29.81,9,1,21,1.24
2013-4-5,58.0,53.9,52.0,52.0,50.7,49.0,94,89,78,30.11,29.98,10,2,18,0.32
2013-4-6,58.0,53.5,50.0,51.0,49.5,47.0,91,87,73,30.15,29.88,10,2,18,0.38
2013-4-7,56.0,49.2,43.0,50.0,45.4,40.0,92,87,66,30.13,29.88,15,2,25,0.79
2013-4-8,59.0,47.6,41.0,48.0,42.2,38.0,94,83,63,30.40,30.13,4,1,7,0.40
2013-4-9,65.0,50.6,41.0,50.0,43.5,38.0,93,78,56,30.42,30.38,3,0,5,0.01
2013-4-10,55.0,47.8,42.0,51.0,44.1,39.0,92,87,82,30.45,30.37,3,0,5,0.00
2013-4-11,60.0,48.3,39.0,47.0,42.4,37.0,93,81,61,30.47,30.26,5,1,8,0.01
2013-4-12,63.0,48.7,39.0,49.0,42.7,36.0,92,81,61,30.26,30.08,4,1,6,0.07
2013-4-13,57.0,48.2,41.0,45.0,40.9,36.0,92,77,55,30.26,30.14,4,1,7,0.18
2013-4-14,53.0,45.1,39.0,45.0,39.8,36.0,91,82,66,30.26,30.07,3,1,6,0.05
2013-4-15,57.0,46.5,41.0,46.0,40.3,37.0,91,80,58,30.31,30.09,4,1,7,0.29
2013-4-16,61.0,48.2,39.0,46.0,40.8,36.0,92,77,54,30.52,30.31,4,1,9,0.01
2013-4-17,63.0,51.5,45.0,48.0,43.8,41.0,89,76,57,30.60,30.52,4,1,9,0.01
2013-4-18,65.0,53.0,46.0,49.0,45.3,43.0,90,76,54,30.58,30.49,8,1,8,0.00
2013-4-19,55.0,51.8,49.0,53.0,48.9,46.0,93,90,85,30.50,30.40,3,0,7,0.22
2013-4-20,65.0,53.8,49.0,53.0,48.1,43.0,93,82,61,30.47,30.38,3,1,7,0.10
2013-4-21,67.0,53.8,47.0,51.0,45.8,41.0,85,75,53,30.42,30.34,5,1,6,0.01
2013-4-22,73.0,58.1,47.0,49.0,44.6,35.0,91,64,33,30.40,30.29,10,2,14,0.00
2013-4-23,75.0,55.6,44.0,46.0,37.7,30.0,76,53,27,30.34,30.22,6,2,10,0.00
2013-4-24,85.0,57.8,39.0,49.0,40.3,34.0,91,59,21,30.26,30.02,6,1,10,0.00
2013-4-25,73.0,54.2,41.0,52.0,45.5,38.0,91,74,45,30.26,30.07,4,0,7,0.00
2013-4-26,69.0,54.6,47.0,55.0,48.4,45.0,93,81,57,30.40,30.26,4,1,7,0.00
2013-4-27,68.0,53.5,46.0,53.0,46.9,44.0,93,80,55,30.42,30.37,3,1,6,0.00
2013-4-28,70.0,55.6,49.0,55.0,48.5,44.0,88,78,59,30.41,30.31,5,1,4,0.00
2013-4-29,63.0,53.6,45.0,51.0,46.0,37.0,94,77,48,30.32,30.27,5,1,8,0.10
2013-4-30,63.0,48.1,35.0,43.0,37.4,32.0,90,69,46,30.49,30.32,9,2,10,0.00
2013-5-1,75.0,50.8,36.0,50.0,39.7,33.0,91,69,36,30.51,30.42,5,1,8,0.00
2013-5-2,85.0,56.3,40.0,53.0,43.7,38.0,92,67,29,30.44,30.32,4,1,7,0.00
2013-5-3,79.0,55.2,41.0,55.0,46.2,38.0,93,74,41,30.38,30.17,4,1,6,0.00
2013-5-4,88.0,66.2,43.0,49.0,42.7,37.0,93,52,21,30.17,29.81,12,2,13,0.00
2013-5-5,90.0,71.5,58.0,53.0,43.4,36.0,72,39,24,29.94,29.71,8,3,15,0.00
2013-5-6,78.0,58.8,49.0,58.0,50.3,46.0,89,75,40,30.07,29.94,3,1,8,0.00
2013-5-7,66.0,56.8,53.0,54.0,50.3,48.0,88,79,63,30.17,30.05,4,1,10,0.00
2013-5-8,72.0,56.6,52.0,54.0,49.8,48.0,90,79,52,30.28,30.17,5,1,5,0.00
2013-5-9,71.0,57.2,51.0,56.0,50.4,47.0,89,79,59,30.29,30.22,5,1,7,0.00
2013-5-10,69.0,55.1,51.0,55.0,47.7,-99.9,90,80,60,30.36,30.29,4,1,5,0.00
2013-5-11,79.0,60.9,47.0,57.0,50.0,-99.9,93,72,41,30.36,30.16,3,1,5,0.00
2013-5-12,76.0,61.9,56.0,60.0,54.9,53.0,91,79,57,30.26,30.19,3,1,11,0.00
2013-5-13,71.0,59.1,51.0,56.0,53.3,47.0,91,82,58,30.33,30.19,5,1,11,0.01
2013-5-14,70.0,56.0,47.0,54.0,47.5,44.0,93,75,51,30.33,30.24,4,1,7,0.00
2013-5-15,69.0,54.0,47.0,51.0,46.4,43.0,90,78,53,30.25,30.17,5,1,8,0.01
2013-5-16,63.0,51.9,53.0,54.0,25.1,-99.9,93,80,61,30.12,30.07,3,1,7,0.04
2013-5-17,62.0,54.8,50.0,53.0,46.6,-99.9,94,83,66,30.23,30.11,2,0,6,0.11
2013-5-18,63.0,54.0,48.0,53.0,49.6,45.0,94,86,70,30.43,30.22,4,0,10,0.07
2013-5-19,65.0,56.7,49.0,53.0,50.3,45.0,94,80,64,30.52,30.42,3,1,5,0.13
2013-5-20,74.0,54.7,44.0,57.0,47.8,41.0,93,79,55,30.43,30.11,5,1,7,0.00
2013-5-21,54.0,50.4,44.0,50.0,46.1,40.0,92,85,68,30.21,29.97,4,1,9,0.53
2013-5-22,51.0,46.7,43.0,48.0,44.2,40.0,93,91,89,30.19,30.15,4,1,8,1.67
2013-5-23,65.0,52.3,44.0,52.0,47.0,42.0,94,83,56,30.18,30.12,5,1,0,0.00
2013-5-24,58.0,52.7,48.0,50.0,47.7,45.0,93,84,68,30.23,30.16,4,0,0,0.00
2013-5-25,74.0,54.9,45.0,55.0,48.3,43.0,93,80,42,30.21,30.06,5,1,0,0.00
2013-5-26,62.0,56.7,53.0,54.0,51.5,50.0,92,83,70,30.19,30.08,5,1,12,0.00
2013-5-27,62.0,55.6,53.0,57.0,52.8,50.0,94,90,81,30.11,29.90,9,1,13,0.65
2013-5-28,69.0,58.1,53.0,54.0,52.2,50.0,94,82,57,30.08,29.86,6,1,10,0.21
2013-5-29,61.0,56.4,52.0,54.0,51.8,48.0,93,85,73,30.20,29.84,8,1,12,0.22
2013-5-30,66.0,55.2,49.0,51.0,48.6,46.0,94,80,53,30.37,30.21,3,1,7,0.03
2013-5-31,73.0,55.4,43.0,56.0,47.6,41.0,94,77,53,30.40,30.32,4,1,10,0.01
2013-6-1,74.0,57.8,47.0,59.0,50.4,44.0,92,78,50,30.36,30.18,3,1,7,0.00
2013-6-2,71.0,59.1,53.0,58.0,53.2,48.0,93,82,63,30.19,30.14,4,1,10,0.02
2013-6-3,75.0,56.9,46.0,59.0,50.4,44.0,95,80,54,30.17,30.09,5,1,7,0.00
2013-6-4,78.0,60.2,48.0,59.0,52.3,45.0,94,77,49,30.14,30.07,6,1,9,0.00
2013-6-5,76.0,60.8,54.0,60.0,54.6,52.0,94,82,56,30.19,30.12,4,1,8,0.00
2013-6-6,74.0,59.1,53.0,59.0,52.8,49.0,91,81,57,30.19,30.14,4,1,7,0.00
2013-6-7,80.0,61.0,51.0,59.0,52.4,48.0,94,76,38,30.22,30.19,4,1,5,0.00
2013-6-8,81.0,63.2,55.0,60.0,54.0,49.0,92,74,44,30.22,30.14,5,1,6,0.01
2013-6-9,74.0,58.6,48.0,55.0,49.7,45.0,92,74,48,30.16,30.09,5,1,11,0.01
2013-6-10,70.0,56.0,44.0,53.0,47.2,41.0,93,74,50,30.14,30.05,5,1,9,0.00
2013-6-11,70.0,57.6,50.0,53.0,49.1,46.0,90,74,54,30.28,30.14,5,1,7,0.00
2013-6-12,68.0,54.2,46.0,52.0,47.7,43.0,93,79,56,30.34,30.27,3,1,6,0.00
2013-6-13,66.0,55.4,48.0,54.0,49.8,44.0,93,83,63,30.42,30.33,3,0,0,0.00
2013-6-14,76.0,57.9,44.0,58.0,49.9,42.0,95,77,52,30.41,30.08,4,1,10,0.00
2013-6-15,70.0,57.9,50.0,58.0,52.1,48.0,94,82,63,30.17,30.04,3,1,5,0.00
2013-6-16,72.0,58.5,48.0,56.0,51.2,45.0,94,78,57,30.25,30.16,4,1,6,0.00
2013-6-17,74.0,58.3,49.0,57.0,52.2,46.0,93,82,50,30.24,30.13,5,1,17,0.02
2013-6-18,70.0,58.2,48.0,57.0,51.4,45.0,93,79,57,30.15,30.10,6,1,9,0.33
2013-6-19,69.0,59.0,52.0,57.0,52.6,50.0,94,80,55,30.24,30.09,5,1,9,0.56
2013-6-20,68.0,57.5,53.0,55.0,52.5,51.0,92,84,62,30.24,30.19,5,0,6,0.15
2013-6-22,78.0,67.9,51.0,62.0,57.8,49.0,94,71,56,30.14,29.97,3,1,0,0.00
2013-6-23,71.0,63.7,57.0,64.0,59.8,54.0,93,87,73,29.97,29.75,5,0,14,0.08
2013-6-24,66.0,59.7,55.0,58.0,55.1,53.0,93,85,68,29.85,29.77,2,0,8,0.11
2013-6-25,70.0,61.9,58.0,60.0,57.3,55.0,95,86,64,29.95,29.78,8,1,13,0.19
2013-6-26,73.0,65.9,59.0,65.0,60.5,58.0,95,83,67,30.10,29.95,3,0,3,0.17
2013-6-27,82.0,65.6,59.0,66.0,60.3,57.0,94,84,57,30.26,30.10,3,0,7,0.00
2013-6-28,85.0,67.6,56.0,68.0,60.5,54.0,95,80,49,30.25,30.17,3,1,5,0.00
2013-6-29,93.0,69.8,57.0,70.0,60.9,55.0,93,75,45,30.22,30.06,3,1,6,0.00
2013-6-30,82.0,68.4,61.0,66.0,61.3,59.0,94,80,56,30.09,30.02,5,1,6,0.00
2013-7-1,82.0,67.7,61.0,66.0,60.9,58.0,90,80,59,30.15,30.05,4,1,10,0.00
2013-7-2,78.0,66.0,60.0,65.0,60.2,57.0,92,82,61,30.18,30.14,4,1,6,0.00
2013-7-3,82.0,69.0,57.0,63.0,57.6,52.0,89,68,51,30.22,30.16,4,1,8,0.00
2013-7-4,78.0,62.4,51.0,59.0,53.9,49.0,94,76,51,30.23,30.14,4,1,8,0.00
2013-7-5,78.0,62.7,52.0,59.0,53.8,49.0,93,74,52,30.16,30.05,5,1,12,0.00
2013-7-6,77.0,59.2,50.0,59.0,52.2,47.0,94,80,52,30.07,29.97,5,1,7,0.00
2013-7-7,76.0,63.8,58.0,60.0,55.7,53.0,84,76,56,30.09,30.01,6,1,8,0.00
2013-7-8,79.0,62.2,53.0,60.0,54.6,50.0,92,78,52,30.13,30.09,3,1,7,0.00
2013-7-9,79.0,64.8,55.0,61.0,57.1,53.0,94,78,54,30.19,30.13,5,1,7,0.00
2013-7-10,76.0,61.7,54.0,59.0,51.6,-99.9,89,73,53,30.19,30.08,7,1,9,0.00
2013-7-11,77.0,59.5,48.0,55.0,50.1,45.0,93,73,47,30.15,30.08,5,1,8,0.00
2013-7-12,75.0,64.6,54.0,53.0,51.4,49.0,82,64,46,30.19,30.13,4,2,9,0.00
2013-7-13,79.0,59.3,46.0,57.0,50.5,43.0,93,75,45,30.20,30.11,5,1,7,0.00
2013-7-14,78.0,59.5,52.0,58.0,52.4,49.0,93,79,49,30.17,30.07,4,1,6,0.00
2013-7-15,78.0,59.1,51.0,60.0,52.1,48.0,93,79,53,30.11,29.91,4,0,7,0.00
2013-7-16,67.0,58.4,52.0,58.0,53.1,49.0,93,83,72,30.16,29.92,4,1,8,0.00
2013-7-17,74.0,61.3,55.0,58.0,53.9,50.0,89,78,57,30.29,30.16,5,1,6,0.00
2013-7-18,78.0,60.0,49.0,60.0,52.2,46.0,93,77,52,30.29,30.21,3,1,7,0.00
2013-7-19,76.0,60.7,53.0,59.0,53.4,49.0,90,78,55,30.25,30.16,4,1,10,0.00
2013-7-20,75.0,61.2,56.0,59.0,54.2,52.0,87,79,57,30.20,30.06,9,1,10,0.00
2013-7-21,78.0,61.3,55.0,61.0,54.7,52.0,91,80,52,30.08,29.98,4,1,8,0.00
2013-7-22,80.0,62.5,56.0,61.0,55.3,51.0,91,79,52,30.10,30.03,3,0,6,0.00
2013-7-23,76.0,59.6,53.0,59.0,53.1,50.0,92,80,54,30.17,30.07,4,1,6,0.00
2013-7-24,77.0,57.6,51.0,58.0,51.6,48.0,92,81,52,30.16,30.10,3,1,6,0.00
2013-7-25,78.0,59.9,51.0,59.0,52.1,48.0,92,77,50,30.16,30.09,3,1,5,0.00
2013-7-26,76.0,58.3,52.0,58.0,51.3,48.0,91,79,52,30.26,30.14,5,1,8,0.00
2013-7-27,78.0,60.1,50.0,59.0,52.1,47.0,94,77,50,30.27,30.14,5,1,8,0.00
2013-7-28,76.0,59.1,48.0,58.0,51.4,45.0,93,77,53,30.16,30.06,4,1,10,0.00
2013-7-29,75.0,59.4,51.0,58.0,52.3,48.0,93,79,54,30.19,30.07,4,1,8,0.00
2013-7-30,70.0,61.9,56.0,58.0,54.5,52.0,88,77,62,30.25,30.19,4,1,5,0.00
2013-7-31,64.0,60.5,58.0,58.0,55.9,54.0,91,85,79,30.25,30.20,2,0,4,0.00
2013-8-1,66.0,61.5,58.0,59.0,56.8,55.0,93,85,75,30.24,30.19,1,0,3,0.04
2013-8-2,77.0,64.8,57.0,60.0,56.4,53.0,93,75,56,30.24,30.16,4,1,8,0.02
2013-8-3,78.0,61.4,54.0,62.0,55.6,52.0,94,82,57,30.19,30.08,3,0,6,0.00
2013-8-4,74.0,60.2,56.0,60.0,55.4,54.0,94,85,60,30.12,30.06,4,0,5,0.00
2013-8-5,71.0,59.3,55.0,58.0,53.7,51.0,92,82,63,30.12,30.05,2,0,5,0.00
2013-8-6,72.0,57.5,53.0,58.0,52.2,50.0,90,83,56,30.13,30.07,3,1,6,0.00
2013-8-7,61.0,57.0,54.0,55.0,53.6,52.0,94,89,82,30.20,30.11,1,0,4,0.02
2013-8-8,56.0,55.3,55.0,54.0,53.2,53.0,94,93,91,30.20,30.14,0,0,2,0.03
2013-8-9,78.0,66.6,60.0,62.0,58.5,55.0,91,76,56,30.06,29.99,4,1,7,0.04
2013-8-10,66.0,61.0,58.0,59.0,57.3,56.0,94,88,76,30.15,30.05,2,0,0,0.00
2013-8-11,73.0,63.9,56.0,60.0,56.7,52.0,93,78,63,30.16,30.13,3,0,5,0.00
2013-8-12,76.0,59.5,52.0,60.0,53.4,50.0,94,82,56,30.19,30.14,3,1,9,0.00
2013-8-13,82.0,61.3,48.0,62.0,51.2,-99.9,94,74,46,30.19,30.07,4,1,6,0.00
2013-8-14,86.0,63.2,52.0,65.0,52.1,-99.9,92,78,42,30.11,30.03,4,0,8,0.00
2013-8-15,77.0,60.3,63.0,67.0,43.7,-99.9,91,78,71,30.09,30.03,2,0,4,0.00
2013-8-16,81.0,65.5,60.0,64.0,55.9,-99.9,91,77,53,30.16,30.06,3,0,5,0.00
2013-8-17,78.0,62.8,54.0,64.0,56.1,-99.9,93,82,62,30.20,30.15,4,1,8,0.00
2013-8-18,82.0,65.5,55.0,65.0,57.9,53.0,94,78,53,30.21,30.13,3,1,6,0.00
2013-8-19,80.0,60.5,58.0,64.0,47.1,-99.9,94,81,50,30.20,30.13,4,1,10,0.00
2013-8-20,82.0,61.5,52.0,60.0,51.9,-99.9,94,77,43,30.17,30.03,2,1,5,0.00
2013-8-21,83.0,62.1,51.0,61.0,53.3,48.0,94,76,41,30.06,29.96,3,0,5,0.00
2013-8-22,68.0,61.2,57.0,59.0,55.7,52.0,90,83,72,30.05,30.01,3,0,5,0.00
2013-8-23,70.0,62.7,58.0,60.0,57.2,53.0,94,83,66,30.06,30.01,0,0,0,0.01
2013-8-24,74.0,61.4,54.0,62.0,54.2,-99.9,94,80,60,30.02,29.96,2,0,6,0.01
2013-8-25,67.0,58.9,54.0,60.0,55.7,52.0,93,89,78,30.04,29.99,1,0,4,0.04
2013-8-26,83.0,65.4,51.0,59.0,54.6,49.0,94,72,37,30.05,30.01,10,1,13,0.00
2013-8-27,81.0,65.2,60.0,63.0,58.7,57.0,89,80,55,30.05,29.93,2,0,6,0.00
2013-8-28,81.0,74.1,67.0,65.0,62.8,61.0,86,68,56,29.99,29.95,7,1,10,0.00
2013-8-29,82.0,71.8,64.0,69.0,65.2,63.0,95,80,61,30.19,30.00,3,1,17,0.10
2013-8-30,83.0,69.2,61.0,68.0,63.3,56.0,94,83,60,30.21,30.13,3,0,6,0.01
2013-8-31,74.0,61.4,58.0,63.0,55.9,-99.9,94,85,65,30.14,30.01,3,0,6,0.00
2013-9-1,85.0,66.1,55.0,63.0,57.8,53.0,93,77,41,30.04,29.91,4,1,10,0.00
2013-9-2,83.0,68.8,60.0,63.0,60.7,55.0,92,77,49,30.03,29.96,4,0,18,0.00
2013-9-3,82.0,65.8,54.0,62.0,57.2,52.0,94,76,49,30.11,30.03,3,1,10,0.00
2013-9-4,78.0,64.8,58.0,62.0,58.4,55.0,93,81,55,30.15,30.09,3,0,5,0.00
2013-9-5,66.0,61.7,60.0,62.0,59.3,58.0,95,92,84,30.24,30.10,1,0,2,0.71
2013-9-6,79.0,65.8,59.0,64.0,59.6,55.0,95,82,58,30.27,30.17,0,0,1,0.71
2013-9-7,83.0,62.5,54.0,65.0,55.4,-99.9,95,81,55,30.17,30.02,4,0,5,0.00
2013-9-8,83.0,65.5,58.0,67.0,59.8,56.0,95,84,57,30.11,30.03,3,0,5,0.00
2013-9-9,82.0,69.4,59.0,66.0,60.9,56.0,95,76,55,30.08,29.96,3,1,7,0.00
2013-9-10,81.0,63.9,57.0,65.0,57.6,54.0,94,82,53,29.97,29.80,6,0,6,0.00
2013-9-11,74.0,62.5,57.0,62.0,57.5,54.0,92,84,66,30.09,29.94,4,0,6,0.00
2013-9-12,67.0,63.4,60.0,60.0,58.8,57.0,92,85,77,30.09,30.06,2,0,4,0.00
2013-9-13,71.0,63.1,58.0,62.0,58.3,55.0,92,85,72,30.09,29.95,4,0,6,0.00
2013-9-14,67.0,61.4,59.0,62.0,56.7,-99.9,93,87,81,29.96,29.88,4,0,7,0.00
2013-9-15,68.0,62.5,59.0,60.0,57.3,56.0,94,84,69,30.02,29.87,3,0,10,0.00
2013-9-16,76.0,63.9,58.0,61.0,57.6,56.0,93,81,56,30.08,29.98,4,0,6,0.00
2013-9-17,72.0,62.8,58.0,60.0,57.3,54.0,94,83,60,30.15,29.96,3,0,6,0.04
2013-9-18,62.0,56.5,54.0,56.0,53.6,52.0,94,91,82,30.19,30.07,0,0,1,0.09
2013-9-19,77.0,59.3,48.0,60.0,52.8,46.0,94,81,52,30.07,29.91,3,0,6,0.00
2013-9-20,63.0,56.7,49.0,61.0,54.2,47.0,94,92,84,29.91,29.76,3,0,7,0.04
2013-9-21,69.0,59.5,55.0,60.0,54.1,-99.9,95,85,69,29.94,29.77,4,0,7,1.10
2013-9-22,63.0,57.7,54.0,58.0,54.5,52.0,94,90,73,30.02,29.86,8,1,15,0.34
2013-9-23,68.0,59.6,53.0,58.0,55.4,52.0,96,87,65,30.11,30.02,4,0,8,0.00
2013-9-24,69.0,58.9,51.0,57.0,53.9,48.0,94,84,62,30.09,30.02,3,1,10,0.31
2013-9-25,63.0,53.0,47.0,54.0,48.6,44.0,94,86,63,30.17,30.01,3,1,5,0.82
2013-9-26,69.0,52.2,43.0,55.0,47.0,41.0,94,83,61,30.30,30.16,4,1,7,0.03
2013-9-27,63.0,52.5,43.0,57.0,49.3,41.0,95,89,72,30.31,30.13,3,0,6,0.44
2013-9-28,63.0,60.3,58.0,59.0,58.1,57.0,96,92,82,30.12,29.77,11,2,18,0.73
2013-9-29,61.0,58.9,56.0,60.0,57.7,54.0,95,95,94,29.83,29.68,6,4,33,1.40
2013-9-30,65.0,60.1,53.0,56.0,52.7,50.0,90,77,64,30.14,30.01,4,1,10,0.11
2013-10-1,61.0,53.5,46.0,50.0,46.8,43.0,89,78,66,30.30,30.26,2,0,4,0.13
2013-10-2,63.0,49.3,40.0,52.0,45.7,38.0,93,88,62,30.31,30.21,4,0,9,0.33
2013-10-3,65.0,52.4,43.0,53.0,45.9,41.0,94,81,54,30.46,30.31,4,1,8,0.03
2013-10-4,74.0,62.2,50.0,55.0,50.3,46.0,87,66,37,30.45,30.36,3,1,4,0.00
2013-10-5,78.0,54.9,42.0,55.0,45.8,40.0,94,75,37,30.36,30.21,2,0,6,0.00
2013-10-6,79.0,64.1,53.0,58.0,51.1,43.0,88,66,28,30.14,30.10,5,1,10,0.00
2013-10-7,66.0,58.4,51.0,56.0,50.9,48.0,94,77,59,30.29,30.14,3,0,6,0.02
2013-10-8,57.0,52.3,48.0,53.0,49.5,45.0,94,90,84,30.29,30.12,1,0,4,0.13
2013-10-9,62.0,53.8,42.0,50.0,46.7,40.0,93,78,54,30.12,30.06,4,1,6,0.00
2013-10-10,68.0,52.7,44.0,53.0,47.5,42.0,93,83,50,30.15,30.05,4,0,5,0.00
2013-10-11,63.0,57.4,49.0,52.0,47.7,45.0,87,71,59,30.22,30.19,0,0,5,0.00
2013-10-12,61.0,50.9,46.0,52.0,46.2,-99.9,93,86,71,30.23,30.15,0,0,2,0.02
2013-10-13,65.0,50.1,39.0,53.0,45.2,37.0,93,84,64,30.34,30.23,3,0,5,0.01
2013-10-14,68.0,49.6,41.0,51.0,43.6,39.0,95,82,44,30.36,30.29,1,0,5,0.01
2013-10-15,73.0,52.8,41.0,51.0,44.0,38.0,94,75,37,30.31,30.16,1,0,3,0.00
2013-10-16,69.0,52.2,41.0,54.0,46.2,38.0,91,81,55,30.24,30.14,0,0,1,0.00
2013-10-17,67.0,54.3,48.0,56.0,49.5,46.0,94,84,66,30.26,30.18,1,0,4,0.00
2013-10-18,73.0,53.6,42.0,58.0,47.8,40.0,93,82,59,30.19,30.10,0,0,0,0.00
2013-10-19,65.0,52.3,43.0,54.0,46.0,-99.9,93,82,67,30.22,30.15,0,0,0,0.00
2013-10-20,63.0,54.4,49.0,55.0,50.3,47.0,94,87,74,30.22,30.12,0,0,0,0.00
2013-10-21,57.0,50.6,46.0,52.0,47.9,44.0,94,91,81,30.13,30.05,1,0,3,0.00
2013-10-22,54.0,51.0,49.0,51.0,48.9,47.0,95,93,89,30.13,30.09,0,0,0,0.00
2013-10-23,55.0,50.9,49.0,51.0,48.6,47.0,95,92,86,30.11,30.06,1,0,2,0.02
2013-10-24,54.0,51.7,49.0,52.0,49.5,47.0,95,93,90,30.17,30.08,1,0,2,0.01
2013-10-25,57.0,53.5,51.0,53.0,50.6,49.0,94,90,83,30.66,30.26,2,0,3,0.00
2013-10-26,64.0,51.0,44.0,54.0,46.0,-99.9,94,86,71,30.30,30.25,2,0,4,0.01
2013-10-27,56.0,51.9,47.0,53.0,48.6,45.0,93,88,81,30.26,29.92,3,0,6,0.04
2013-10-28,62.0,49.6,43.0,50.0,43.4,-99.9,94,84,60,29.94,29.83,2,0,4,0.01
2013-10-29,61.0,44.4,35.0,46.0,38.5,33.0,93,81,57,30.16,29.94,0,0,3,0.01
2013-10-30,62.0,44.7,34.0,47.0,38.8,31.0,91,81,51,30.29,30.16,1,0,1,0.00
2013-10-31,63.0,54.1,47.0,56.0,49.8,44.0,93,86,69,30.32,30.29,0,0,3,0.00
2013-11-1,69.0,54.4,45.0,57.0,50.2,43.0,95,86,66,30.32,30.06,3,0,4,0.00
2013-11-2,61.0,52.1,46.0,53.0,46.9,-99.9,94,85,65,30.28,29.98,4,1,11,0.45
2013-11-3,56.0,48.7,43.0,50.0,44.8,40.0,94,87,73,30.33,30.27,1,0,4,0.22
2013-11-4,53.0,47.2,40.0,49.0,44.6,38.0,94,90,83,30.30,30.25,1,0,4,0.09
2013-11-5,57.0,54.1,51.0,55.0,52.4,49.0,95,94,92,30.36,30.23,4,0,4,0.47
2013-11-6,64.0,57.4,55.0,60.0,55.4,54.0,96,93,86,30.36,30.23,1,0,6,0.23
2013-11-7,56.0,55.1,52.0,54.0,53.0,49.0,94,93,91,30.24,30.13,4,0,6,0.82
2013-11-8,61.0,51.0,43.0,51.0,46.3,40.0,94,85,68,30.30,30.16,3,1,4,0.01
2013-11-9,61.0,48.3,40.0,49.0,42.9,-99.9,94,85,63,30.17,30.08,2,0,2,0.01
2013-11-10,63.0,50.3,43.0,53.0,46.5,41.0,94,87,68,30.15,30.08,3,0,3,0.00
2013-11-11,64.0,52.5,44.0,56.0,49.2,42.0,94,89,73,30.15,30.06,1,0,0,0.00
2013-11-12,62.0,55.5,53.0,58.0,53.4,51.0,96,93,84,30.51,30.12,3,0,0,0.00
2013-11-13,64.0,52.5,46.0,55.0,48.4,43.0,95,87,68,30.52,30.36,4,1,0,0.00
2013-11-14,55.0,47.9,42.0,49.0,44.9,40.0,94,90,79,30.36,30.20,4,0,0,0.07
2013-11-15,54.0,48.8,45.0,48.0,45.5,43.0,94,89,76,30.20,29.88,2,0,5,0.07
2013-11-16,56.0,50.1,46.0,52.0,46.2,-99.9,95,89,76,30.03,29.82,2,0,8,0.23
2013-11-17,57.0,50.2,46.0,50.0,46.4,44.0,94,87,71,30.15,30.03,7,1,9,0.08
2013-11-18,47.0,46.9,46.0,45.0,44.9,44.0,94,92,91,30.11,30.04,0,0,0,0.01
2013-11-19,56.0,50.7,44.0,54.0,48.2,40.0,94,91,82,30.05,29.92,1,0,6,0.24
2013-11-20,48.0,43.0,39.0,40.0,34.5,29.0,87,72,61,30.35,30.05,7,3,16,0.01
2013-11-21,50.0,40.2,33.0,30.0,25.5,21.0,82,58,33,30.53,30.35,5,2,11,0.01
2013-11-22,55.0,46.5,35.0,31.0,28.1,25.0,73,49,38,30.52,30.32,6,2,0,0.00
2013-11-23,65.0,45.9,32.0,37.0,30.4,-99.9,86,60,31,30.32,30.10,6,2,0,0.00
2013-11-24,60.0,43.5,33.0,42.0,35.3,29.0,87,75,40,30.33,30.14,3,0,0,0.00
2013-11-25,58.0,41.5,32.0,45.0,36.0,29.0,88,81,55,30.40,30.33,3,0,0,0.00
2013-11-26,59.0,44.3,34.0,50.0,39.8,31.0,92,84,69,30.35,30.10,2,0,0,0.00
2013-11-27,60.0,46.0,36.0,48.0,39.9,33.0,90,81,51,30.10,29.96,2,0,0,0.00
2013-11-28,61.0,44.9,36.0,48.0,39.9,33.0,91,83,58,30.25,30.03,3,0,0,0.00
2013-11-29,55.0,37.6,33.0,45.0,34.1,30.0,91,87,70,30.37,30.25,1,0,0,0.00
2013-12-3,47.0,39.4,32.0,42.0,35.6,29.0,90,87,80,30.28,30.17,5,1,7,0.05
2013-12-4,41.0,31.9,28.0,30.0,26.1,23.0,91,80,53,30.37,30.28,3,1,5,0.01
2013-12-5,42.0,31.1,24.0,31.0,25.3,20.0,87,80,55,30.35,30.19,2,0,4,0.01
2013-12-6,44.0,37.1,33.0,42.0,34.0,28.0,93,89,83,30.19,29.90,4,1,9,0.39
2013-12-7,36.0,29.8,25.0,28.0,20.1,-99.9,80,69,55,30.45,30.09,5,2,7,0.02
2013-12-8,37.0,29.8,24.0,22.0,18.8,16.0,79,65,45,30.65,30.44,5,2,9,0.00
2013-12-9,42.0,30.3,23.0,27.0,21.5,17.0,82,70,51,30.65,30.58,4,1,7,0.01
2013-12-10,47.0,33.1,27.0,33.0,26.4,23.0,86,76,55,30.59,30.44,3,1,5,0.00
2013-12-12,46.0,44.6,43.0,42.0,41.3,40.0,91,88,85,30.33,30.25,1,0,1,0.13
2013-12-13,43.0,42.5,42.0,41.0,40.5,40.0,92,92,91,30.39,30.33,0,0,2,0.00
2013-12-16,50.0,43.5,38.0,40.0,37.5,34.0,87,80,67,30.27,30.25,3,1,5,0.02
2013-12-17,51.0,41.0,33.0,43.0,36.9,30.0,92,86,71,30.30,30.24,3,0,4,0.01
2013-12-18,48.0,43.6,41.0,45.0,40.7,38.0,92,89,85,30.27,30.14,3,0,4,0.00
2013-12-19,40.0,35.8,33.0,32.0,30.5,29.0,87,81,74,30.35,30.32,1,0,3,0.00
2013-12-20,47.0,39.1,33.0,45.0,34.8,29.0,93,84,69,30.33,30.13,1,0,4,0.26
2013-12-23,52.0,50.7,49.0,50.0,48.8,46.0,95,94,94,30.60,30.52,0,0,1,0.09
2013-12-24,51.0,45.3,40.0,46.0,41.3,36.0,94,86,76,30.62,30.46,5,2,7,0.06
2013-12-25,53.0,40.6,31.0,45.0,36.2,28.0,91,85,70,30.48,30.38,3,0,2,0.01
2013-12-26,56.0,41.1,33.0,47.0,36.6,30.0,91,85,64,30.40,30.26,1,0,2,0.00
2013-12-27,52.0,45.2,38.0,47.0,42.1,36.0,94,89,82,30.43,30.27,2,0,7,0.00
2013-12-28,41.0,40.6,40.0,39.0,38.6,38.0,92,92,91,30.45,30.43,0,0,0,0.00
2013-12-30,46.0,43.5,42.0,42.0,39.9,39.0,89,87,85,30.31,30.28,1,0,2,0.01
2013-12-31,52.0,45.5,39.0,45.0,41.1,36.0,92,85,73,30.40,30.36,2,0,6,0.01
2014-1-1,55.0,42.8,33.0,48.0,38.1,30.0,92,84,66,30.40,30.28,3,0,5,0.00
2014-1-2,56.0,44.7,35.0,50.0,40.8,32.0,91,86,75,30.30,30.21,2,0,3,0.00